Time;durP1;ratioP1;P1;durP2;ratioP2;P2;SDS_P1;SDS_P2;PMS_P1;PMS_P2;Temp;Humidity;BMP_temperature;BMP_pressure;BME280_temperature;BME280_humidity;BME280_pressure;Samples;Min_cycle;Max_cycle;Signal;HPM_P1;HPM_P2
2022/01/04 00:01:05;;;;;;;;;;;;;;;15.04;46.22;99192.44;4467564;32;34941;-74
2022/01/04 00:03:32;;;;;;;;;;;;;;;15.10;45.74;99189.97;4462110;32;34378;-70
2022/01/04 00:06:00;;;;;;;;;;;;;;;14.56;47.19;99199.94;4466986;32;34350;-72
2022/01/04 00:08:27;;;;;;;;;;;;;;;14.80;46.13;99190.38;4467361;32;33556;-73
2022/01/04 00:11:05;;;;;;;;;;;;;;;14.87;46.13;99186.09;4467694;32;31903;-75
2022/01/04 00:13:33;;;;;;;;;;;;;;;14.81;46.05;99190.25;4464764;32;34267;-71
2022/01/04 00:16:03;;;;;;;;;;;;;;;14.03;48.66;99199.81;4474229;32;33638;-75
2022/01/04 00:18:30;;;;;;;;;;;;;;;13.96;49.21;99191.50;4461673;31;33634;-74
2022/01/04 00:20:57;;;;;;;;;;;;;;;14.54;47.72;99199.25;4464862;32;34238;-74
2022/01/04 00:23:25;;;;;;;;;;;;;;;14.65;47.14;99195.47;4468119;32;34390;-75
2022/01/04 00:25:52;;;;;;;;;;;;;;;14.51;47.81;99194.19;4464043;32;31712;-74
2022/01/04 00:28:20;;;;;;;;;;;;;;;14.46;48.24;99191.06;4469197;32;33628;-74
2022/01/04 00:30:47;;;;;;;;;;;;;;;14.83;46.64;99182.88;4474892;31;32852;-75
2022/01/04 00:33:16;;;;;;;;;;;;;;;14.33;48.31;99191.44;4469310;32;32953;-75
2022/01/04 00:35:45;;;;;;;;;;;;;;;14.16;49.07;99182.34;4436780;32;868126;-74
2022/01/04 00:38:13;;;;;;;;;;;;;;;14.55;47.97;99189.34;4466125;32;33686;-75
2022/01/04 00:40:40;;;;;;;;;;;;;;;14.85;46.83;99198.84;4447419;31;35202;-75
2022/01/04 00:43:08;;;;;;;;;;;;;;;14.82;46.63;99191.09;4466912;32;34322;-74
2022/01/04 00:45:37;;;;;;;;;;;;;;;14.54;47.06;99185.78;4466894;32;33254;-74
2022/01/04 00:50:36;;;;;;;;;;;;;;;14.49;47.49;99174.59;4466456;32;33497;-73
2022/01/04 00:53:03;;;;;;;;;;;;;;;14.05;48.71;99179.84;4468164;31;33110;-73
2022/01/04 00:55:31;;;;;;;;;;;;;;;14.34;48.05;99178.81;4465356;32;34235;-73
2022/01/04 00:57:59;;;;;;;;;;;;;;;14.51;47.65;99178.03;4471801;31;33723;-73
2022/01/04 01:00:27;;;;;;;;;;;;;;;14.24;47.93;99169.97;4464497;32;34340;-74
2022/01/04 01:02:54;;;;;;;;;;;;;;;14.28;48.20;99179.41;4473951;31;34920;-74
2022/01/04 01:05:24;;;;;;;;;;;;;;;14.14;48.44;99172.72;4471483;32;34401;-73
2022/01/04 01:07:52;;;;;;;;;;;;;;;14.47;47.88;99181.97;4463697;32;33341;-72
2022/01/04 01:12:59;;;;;;;;;;;;;;;14.47;48.08;99170.34;4473629;32;34943;-71
2022/01/04 01:15:26;;;;;;;;;;;;;;;14.21;48.85;99168.41;4470732;31;34723;-71
2022/01/04 01:17:54;;;;;;;;;;;;;;;13.96;49.23;99168.16;4471226;32;31247;-71
2022/01/04 01:20:21;;;;;;;;;;;;;;;14.04;49.43;99170.09;4467809;31;33940;-71
2022/01/04 01:22:48;;;;;;;;;;;;;;;13.79;49.75;99165.41;4471435;32;32210;-73
2022/01/04 01:25:16;;;;;;;;;;;;;;;13.82;49.91;99154.34;4470171;31;34235;-71
2022/01/04 01:27:44;;;;;;;;;;;;;;;13.78;49.62;99152.97;4470070;32;33718;-70
2022/01/04 01:30:12;;;;;;;;;;;;;;;13.28;51.26;99149.63;4468491;32;32859;-72
2022/01/04 01:32:39;;;;;;;;;;;;;;;12.67;51.97;99163.41;4469118;32;33714;-72
2022/01/04 01:35:07;;;;;;;;;;;;;;;12.38;53.27;99154.53;4472401;31;33981;-71
2022/01/04 01:37:34;;;;;;;;;;;;;;;13.09;51.50;99144.25;4477436;32;33686;-72
2022/01/04 01:40:05;;;;;;;;;;;;;;;12.88;51.72;99144.47;4477604;32;33871;-73
2022/01/04 01:42:32;;;;;;;;;;;;;;;13.07;51.35;99161.53;4476279;32;34436;-72
2022/01/04 01:45:00;;;;;;;;;;;;;;;13.60;49.80;99155.59;4471733;32;34264;-70
2022/01/04 01:47:27;;;;;;;;;;;;;;;12.77;51.72;99148.13;4474301;32;34725;-71
2022/01/04 01:49:55;;;;;;;;;;;;;;;12.79;51.75;99135.41;4470951;32;34667;-70
2022/01/04 01:52:23;;;;;;;;;;;;;;;13.24;50.61;99123.16;4473012;32;34268;-72
2022/01/04 01:54:50;;;;;;;;;;;;;;;13.72;49.27;99120.28;4470671;32;33746;-71
2022/01/04 01:57:18;;;;;;;;;;;;;;;13.42;49.96;99112.53;4470769;32;33628;-72
2022/01/04 01:59:45;;;;;;;;;;;;;;;13.56;49.92;99109.34;4472340;32;32764;-72
2022/01/04 02:02:13;;;;;;;;;;;;;;;13.43;50.05;99095.38;4471879;32;33934;-72
2022/01/04 02:04:40;;;;;;;;;;;;;;;13.45;50.23;99066.50;4468417;32;34685;-72
2022/01/04 02:07:08;;;;;;;;;;;;;;;13.55;49.98;99058.38;4467808;32;33179;-72
2022/01/04 02:09:38;;;;;;;;;;;;;;;13.71;49.61;99048.69;4465582;32;34184;-73
2022/01/04 02:12:06;;;;;;;;;;;;;;;13.67;49.56;99031.13;4468362;32;33048;-74
2022/01/04 02:14:33;;;;;;;;;;;;;;;13.32;50.55;99029.22;4465255;32;34600;-73
2022/01/04 02:17:00;;;;;;;;;;;;;;;13.44;50.48;99035.25;4469304;32;32826;-72
2022/01/04 02:19:28;;;;;;;;;;;;;;;13.39;50.48;99040.25;4471034;32;35206;-72
2022/01/04 02:21:56;;;;;;;;;;;;;;;13.17;51.15;99031.53;4469853;32;32688;-72
2022/01/04 02:24:23;;;;;;;;;;;;;;;12.60;52.54;99025.37;4474059;32;34355;-73
2022/01/04 02:26:51;;;;;;;;;;;;;;;12.86;52.13;99022.06;4468460;32;34514;-70
2022/01/04 02:29:18;;;;;;;;;;;;;;;12.64;53.38;99024.09;4467983;32;35147;-72
2022/01/04 02:31:46;;;;;;;;;;;;;;;12.57;53.43;99028.34;4469102;32;35430;-74
2022/01/04 02:34:13;;;;;;;;;;;;;;;12.28;53.92;99023.03;4469677;32;34454;-73
2022/01/04 02:36:41;;;;;;;;;;;;;;;13.07;51.60;99027.22;4465388;32;34753;-72
2022/01/04 02:39:08;;;;;;;;;;;;;;;13.32;50.80;99025.69;4467307;32;34265;-75
2022/01/04 02:41:35;;;;;;;;;;;;;;;12.88;51.92;99022.75;4468788;32;33326;-74
2022/01/04 02:44:04;;;;;;;;;;;;;;;13.22;51.37;99039.16;4468262;32;34646;-74
2022/01/04 02:46:31;;;;;;;;;;;;;;;13.46;50.53;99033.28;4469843;32;32808;-82
2022/01/04 02:48:58;;;;;;;;;;;;;;;13.53;50.43;99034.34;4467814;32;34519;-79
2022/01/04 02:51:26;;;;;;;;;;;;;;;13.77;49.68;99041.81;4466679;31;33662;-79
2022/01/04 02:53:53;;;;;;;;;;;;;;;13.54;50.69;99035.19;4462784;32;32922;-78
2022/01/04 02:56:20;;;;;;;;;;;;;;;13.81;49.84;99028.94;4464634;32;33620;-78
2022/01/04 02:58:48;;;;;;;;;;;;;;;13.54;50.53;99029.81;4471534;32;33927;-79
2022/01/04 03:01:15;;;;;;;;;;;;;;;13.85;49.61;99028.47;4470748;32;34495;-81
2022/01/04 03:03:43;;;;;;;;;;;;;;;13.99;48.90;99033.31;4469734;32;35103;-76
2022/01/04 03:06:14;;;;;;;;;;;;;;;14.00;48.76;99028.78;4475535;32;34552;-81
2022/01/04 03:08:41;;;;;;;;;;;;;;;13.94;48.93;99018.66;4448758;32;33972;-75
2022/01/04 03:11:09;;;;;;;;;;;;;;;14.00;48.94;99018.03;4472095;32;34352;-75
2022/01/04 03:13:36;;;;;;;;;;;;;;;14.03;48.95;99006.09;4472269;31;34424;-77
2022/01/04 03:16:03;;;;;;;;;;;;;;;13.88;49.44;99001.25;4474826;32;33770;-77
2022/01/04 03:18:31;;;;;;;;;;;;;;;13.71;50.10;99004.81;4470256;32;35197;-75
2022/01/04 03:20:58;;;;;;;;;;;;;;;13.89;49.31;98999.41;4472646;32;34159;-76
2022/01/04 03:23:26;;;;;;;;;;;;;;;13.98;49.04;99006.56;4462715;32;34232;-78
2022/01/04 03:25:53;;;;;;;;;;;;;;;13.28;51.53;98998.28;4470625;32;33736;-76
2022/01/04 03:28:22;;;;;;;;;;;;;;;13.84;49.21;98994.50;4472751;32;34208;-75
2022/01/04 03:30:50;;;;;;;;;;;;;;;13.95;48.97;98988.03;4471921;32;33937;-75
2022/01/04 03:33:17;;;;;;;;;;;;;;;13.54;49.84;98979.56;4475917;32;35940;-77
2022/01/04 03:35:44;;;;;;;;;;;;;;;13.85;49.07;98979.22;4470527;31;34289;-75
2022/01/04 03:38:12;;;;;;;;;;;;;;;13.72;49.52;98974.22;4472793;32;34168;-75
2022/01/04 03:40:39;;;;;;;;;;;;;;;13.90;49.09;98966.13;4472676;31;33147;-75
2022/01/04 03:43:06;;;;;;;;;;;;;;;13.70;49.30;98952.84;4472227;32;34564;-75
2022/01/04 03:45:34;;;;;;;;;;;;;;;12.74;52.17;98951.56;4471978;31;33613;-75
2022/01/04 03:48:01;;;;;;;;;;;;;;;13.72;48.97;98963.47;4471337;32;34241;-75
2022/01/04 03:50:28;;;;;;;;;;;;;;;13.81;48.66;98964.41;4475064;32;35071;-76
2022/01/04 03:52:56;;;;;;;;;;;;;;;13.87;48.53;98963.78;4467929;31;34118;-77
2022/01/04 03:55:23;;;;;;;;;;;;;;;13.82;48.52;98966.91;4473376;32;31944;-77
2022/01/04 03:57:50;;;;;;;;;;;;;;;13.84;48.56;98958.72;4470653;32;34048;-75
2022/01/04 04:00:18;;;;;;;;;;;;;;;13.91;48.28;98952.53;4472126;32;35294;-76
2022/01/04 04:02:45;;;;;;;;;;;;;;;13.76;48.45;98935.25;4472080;32;35116;-77
2022/01/04 04:05:15;;;;;;;;;;;;;;;13.64;48.67;98939.16;4473578;32;31872;-74
2022/01/04 04:07:42;;;;;;;;;;;;;;;13.62;48.65;98936.66;4473622;32;34303;-74
2022/01/04 04:10:11;;;;;;;;;;;;;;;13.57;48.74;98930.88;4470752;32;34345;-75
2022/01/04 04:12:38;;;;;;;;;;;;;;;13.44;49.09;98933.94;4468952;31;35085;-76
2022/01/04 04:15:08;;;;;;;;;;;;;;;13.35;49.53;98936.69;4464556;32;33221;-75
2022/01/04 04:17:36;;;;;;;;;;;;;;;12.85;50.99;98931.75;4464618;32;33894;-76
2022/01/04 04:20:04;;;;;;;;;;;;;;;12.82;51.08;98933.72;4468377;32;34019;-78
2022/01/04 04:22:31;;;;;;;;;;;;;;;12.70;51.50;98932.22;4469025;32;35285;-76
2022/01/04 04:24:59;;;;;;;;;;;;;;;12.12;53.18;98933.25;4469358;32;33569;-76
2022/01/04 04:27:26;;;;;;;;;;;;;;;11.58;54.67;98923.94;4465036;32;34775;-76
2022/01/04 04:29:53;;;;;;;;;;;;;;;11.02;56.66;98923.78;4463014;32;34679;-73
2022/01/04 04:32:21;;;;;;;;;;;;;;;10.92;57.56;98915.72;4465931;32;35248;-77
2022/01/04 04:34:48;;;;;;;;;;;;;;;10.34;59.68;98916.34;4470786;32;33456;-80
2022/01/04 04:37:15;;;;;;;;;;;;;;;10.17;59.52;98914.22;4471519;32;34300;-74
2022/01/04 04:39:43;;;;;;;;;;;;;;;9.99;60.37;98922.88;4469224;31;34604;-76
2022/01/04 04:42:10;;;;;;;;;;;;;;;10.70;58.28;98914.09;4471125;32;34097;-76
2022/01/04 04:44:37;;;;;;;;;;;;;;;10.91;57.63;98908.66;4472703;32;34823;-76
2022/01/04 04:47:05;;;;;;;;;;;;;;;11.00;57.29;98915.84;4474370;32;34172;-77
2022/01/04 04:49:32;;;;;;;;;;;;;;;11.50;55.77;98925.66;4476617;32;33223;-75
2022/01/04 04:52:00;;;;;;;;;;;;;;;11.49;55.50;98919.44;4473851;32;33225;-75
2022/01/04 04:54:28;;;;;;;;;;;;;;;11.80;54.84;98908.56;4473602;32;33605;-77
2022/01/04 04:56:55;;;;;;;;;;;;;;;12.01;54.04;98909.28;4469905;31;33488;-77
2022/01/04 04:59:22;;;;;;;;;;;;;;;12.28;52.94;98896.94;4477142;32;34189;-75
2022/01/04 05:01:50;;;;;;;;;;;;;;;12.44;52.73;98897.16;4470388;31;33121;-74
2022/01/04 05:04:18;;;;;;;;;;;;;;;12.72;51.67;98892.66;4468037;32;34161;-75
2022/01/04 05:06:45;;;;;;;;;;;;;;;12.89;50.85;98896.37;4476416;32;32970;-79
2022/01/04 05:09:13;;;;;;;;;;;;;;;13.00;50.42;98885.44;4469434;32;33883;-76
2022/01/04 05:11:40;;;;;;;;;;;;;;;12.99;50.34;98890.94;4475097;32;34090;-77
2022/01/04 05:14:07;;;;;;;;;;;;;;;13.07;50.04;98896.41;4469404;32;33616;-76
2022/01/04 05:16:34;;;;;;;;;;;;;;;13.07;50.10;98896.41;4475099;32;34028;-76
2022/01/04 05:19:02;;;;;;;;;;;;;;;13.11;49.72;98902.34;4472426;31;34369;-74
2022/01/04 05:21:29;;;;;;;;;;;;;;;13.11;49.53;98887.06;4469125;32;34302;-74
2022/01/04 05:23:57;;;;;;;;;;;;;;;13.26;49.09;98885.56;4470609;32;33622;-75
2022/01/04 05:26:24;;;;;;;;;;;;;;;13.36;48.55;98890.03;4472088;32;34980;-72
2022/01/04 05:28:51;;;;;;;;;;;;;;;13.06;49.50;98897.41;4471435;31;33432;-75
2022/01/04 05:31:19;;;;;;;;;;;;;;;13.20;48.93;98879.94;4473707;32;34835;-73
2022/01/04 05:33:46;;;;;;;;;;;;;;;13.22;49.28;98873.37;4478027;32;33678;-75
2022/01/04 05:36:13;;;;;;;;;;;;;;;13.18;48.95;98861.25;4470279;32;33905;-73
2022/01/04 05:38:41;;;;;;;;;;;;;;;13.17;48.93;98866.81;4469541;32;35273;-73
2022/01/04 05:41:08;;;;;;;;;;;;;;;13.24;48.45;98866.06;4473026;31;35178;-72
2022/01/04 05:43:36;;;;;;;;;;;;;;;13.18;48.27;98853.19;4475401;32;33548;-75
2022/01/04 05:46:03;;;;;;;;;;;;;;;13.23;48.10;98850.91;4473576;31;33916;-75
2022/01/04 05:48:31;;;;;;;;;;;;;;;13.13;48.64;98842.09;4471936;32;34268;-76
2022/01/04 05:50:58;;;;;;;;;;;;;;;13.13;48.49;98834.03;4470926;32;35301;-78
2022/01/04 05:53:31;;;;;;;;;;;;;;;12.99;49.63;98832.69;4471793;32;34284;-74
2022/01/04 05:55:58;;;;;;;;;;;;;;;13.17;48.80;98830.03;4469025;32;32807;-74
2022/01/04 05:58:25;;;;;;;;;;;;;;;13.14;48.86;98824.97;4475839;32;32837;-73
2022/01/04 06:00:53;;;;;;;;;;;;;;;12.83;50.04;98825.31;4472331;32;33692;-73
2022/01/04 06:03:21;;;;;;;;;;;;;;;13.12;48.87;98826.94;4473676;31;34440;-76
2022/01/04 06:05:48;;;;;;;;;;;;;;;13.14;48.89;98830.34;4469855;32;34021;-74
2022/01/04 06:08:15;;;;;;;;;;;;;;;13.11;48.97;98827.94;4473218;32;33934;-74
2022/01/04 06:10:44;;;;;;;;;;;;;;;12.42;50.65;98820.47;4470774;32;34182;-74
2022/01/04 06:15:57;;;;;;;;;;;;;;;12.59;50.35;98822.38;4472978;32;32915;-73
2022/01/04 06:18:25;;;;;;;;;;;;;;;11.92;52.04;98818.13;4472422;31;34280;-74
2022/01/04 06:20:52;;;;;;;;;;;;;;;11.99;51.89;98824.59;4468835;32;34510;-73
2022/01/04 06:23:19;;;;;;;;;;;;;;;11.74;53.06;98818.84;4473809;32;33662;-72
2022/01/04 06:25:47;;;;;;;;;;;;;;;11.24;54.47;98819.06;4475361;32;34203;-72
2022/01/04 06:28:15;;;;;;;;;;;;;;;11.65;53.79;98822.38;4473437;32;34453;-75
2022/01/04 06:30:43;;;;;;;;;;;;;;;11.39;54.63;98822.13;4471988;32;35622;-73
2022/01/04 06:33:10;;;;;;;;;;;;;;;11.50;54.25;98822.00;4479718;32;34380;-74
2022/01/04 06:35:37;;;;;;;;;;;;;;;11.64;54.67;98818.03;4468290;32;33013;-75
2022/01/04 06:38:05;;;;;;;;;;;;;;;11.72;53.74;98812.78;4467931;32;33879;-77
2022/01/04 06:40:32;;;;;;;;;;;;;;;12.14;52.31;98801.69;4470806;32;34533;-78
2022/01/04 06:42:59;;;;;;;;;;;;;;;12.49;51.53;98797.44;4476606;32;33358;-74
2022/01/04 06:45:27;;;;;;;;;;;;;;;12.45;51.21;98798.69;4475192;32;34316;-76
2022/01/04 06:47:54;;;;;;;;;;;;;;;12.57;51.08;98792.13;4478103;32;34344;-76
2022/01/04 06:50:21;;;;;;;;;;;;;;;12.73;50.53;98786.09;4471921;32;34676;-75
2022/01/04 06:52:49;;;;;;;;;;;;;;;12.63;51.11;98786.16;4476220;32;34076;-75
2022/01/04 06:55:16;;;;;;;;;;;;;;;12.17;52.54;98787.13;4479586;32;34955;-75
2022/01/04 06:57:44;;;;;;;;;;;;;;;12.89;50.78;98790.78;4478084;32;34280;-75
2022/01/04 07:00:12;;;;;;;;;;;;;;;13.44;48.97;98780.72;4476312;32;35350;-74
2022/01/04 07:02:39;;;;;;;;;;;;;;;13.64;48.48;98775.16;4476809;32;34337;-75
2022/01/04 07:05:06;;;;;;;;;;;;;;;14.41;46.56;98781.44;4476551;32;34330;-76
2022/01/04 07:07:34;;;;;;;;;;;;;;;15.35;43.84;98777.62;4471645;32;34454;-75
2022/01/04 07:10:01;;;;;;;;;;;;;;;15.72;42.74;98778.97;4477912;32;34537;-75
2022/01/04 07:12:29;;;;;;;;;;;;;;;16.15;42.08;98782.25;4475599;32;34474;-74
2022/01/04 07:14:56;;;;;;;;;;;;;;;16.25;41.85;98786.41;4476972;32;35114;-74
2022/01/04 07:17:23;;;;;;;;;;;;;;;16.19;41.95;98797.91;4468768;32;36583;-74
2022/01/04 07:19:51;;;;;;;;;;;;;;;16.39;41.57;98802.91;4467725;32;34168;-73
2022/01/04 07:22:18;;;;;;;;;;;;;;;16.70;41.07;98801.09;4468128;32;34518;-72
2022/01/04 07:24:45;;;;;;;;;;;;;;;16.79;40.88;98806.47;4468598;32;33818;-73
2022/01/04 07:27:13;;;;;;;;;;;;;;;16.69;40.88;98798.53;4476777;32;35312;-78
2022/01/04 07:29:40;;;;;;;;;;;;;;;16.47;41.08;98803.72;4473221;32;33909;-73
2022/01/04 07:32:08;;;;;;;;;;;;;;;16.71;40.25;98805.47;4475607;32;34042;-74
2022/01/04 07:34:35;;;;;;;;;;;;;;;16.71;40.45;98805.47;4476324;32;32693;-73
2022/01/04 07:37:02;;;;;;;;;;;;;;;16.56;40.50;98809.91;4472249;32;35384;-76
2022/01/04 07:39:30;;;;;;;;;;;;;;;16.49;40.82;98792.72;4467835;32;34285;-74
2022/01/04 07:41:57;;;;;;;;;;;;;;;16.41;41.12;98788.22;4468323;32;32059;-76
2022/01/04 07:44:25;;;;;;;;;;;;;;;16.36;41.34;98793.28;4468248;32;34349;-74
2022/01/04 07:46:53;;;;;;;;;;;;;;;16.61;41.05;98785.09;4466950;32;34262;-73
2022/01/04 07:49:21;;;;;;;;;;;;;;;16.41;41.31;98784.69;4468102;32;34349;-74
2022/01/04 07:51:48;;;;;;;;;;;;;;;17.22;39.96;98777.97;4470007;32;33799;-74
2022/01/04 07:54:16;;;;;;;;;;;;;;;17.70;38.63;98776.72;4468162;32;34150;-75
2022/01/04 07:56:43;;;;;;;;;;;;;;;17.77;38.32;98767.88;4467783;32;35593;-75
2022/01/04 07:59:16;;;;;;;;;;;;;;;17.69;38.35;98758.81;4468404;32;35396;-75
2022/01/04 08:01:43;;;;;;;;;;;;;;;18.39;37.01;98752.13;4469086;32;33726;-75
2022/01/04 08:04:11;;;;;;;;;;;;;;;19.00;35.98;98748.22;4474416;32;33785;-77
2022/01/04 08:06:39;;;;;;;;;;;;;;;18.99;35.97;98760.13;4478661;32;34197;-75
2022/01/04 08:09:06;;;;;;;;;;;;;;;18.84;36.10;98757.44;4478404;32;34502;-78
2022/01/04 08:11:34;;;;;;;;;;;;;;;19.23;35.30;98750.75;4475478;32;34466;-76
2022/01/04 08:14:01;;;;;;;;;;;;;;;19.18;35.35;98745.09;4475245;32;33063;-77
2022/01/04 08:16:28;;;;;;;;;;;;;;;19.23;35.41;98739.91;4477348;32;34250;-76
2022/01/04 08:18:56;;;;;;;;;;;;;;;19.07;35.64;98730.19;4475299;32;34424;-75
2022/01/04 08:21:32;;;;;;;;;;;;;;;19.11;35.65;98726.03;4474595;32;33344;-75
2022/01/04 08:24:00;;;;;;;;;;;;;;;19.30;35.74;98717.25;4474738;32;34012;-77
2022/01/04 08:26:28;;;;;;;;;;;;;;;19.98;34.02;98706.69;4474637;32;34095;-76
2022/01/04 08:28:56;;;;;;;;;;;;;;;19.84;34.07;98712.22;4475797;32;35150;-75
2022/01/04 08:31:24;;;;;;;;;;;;;;;18.22;36.73;98715.41;4478254;32;33543;-75
2022/01/04 08:33:52;;;;;;;;;;;;;;;18.31;37.25;98708.88;4472309;32;33982;-76
2022/01/04 08:36:21;;;;;;;;;;;;;;;18.54;36.98;98703.31;4472896;32;35022;-77
2022/01/04 08:38:48;;;;;;;;;;;;;;;18.03;37.70;98705.16;4473345;32;35240;-73
2022/01/04 08:41:16;;;;;;;;;;;;;;;16.79;40.27;98720.84;4471070;32;33233;-74
2022/01/04 08:43:43;;;;;;;;;;;;;;;17.29;39.32;98719.44;4475756;32;33103;-74
2022/01/04 08:46:11;;;;;;;;;;;;;;;17.04;39.86;98720.66;4476025;32;32973;-74
2022/01/04 08:48:38;;;;;;;;;;;;;;;17.56;39.13;98712.59;4474311;32;35389;-74
2022/01/04 08:51:06;;;;;;;;;;;;;;;17.74;38.57;98696.00;4473138;32;32399;-74
2022/01/04 08:53:33;;;;;;;;;;;;;;;17.43;39.49;98698.84;4467477;32;34040;-77
2022/01/04 08:56:02;;;;;;;;;;;;;;;14.65;45.27;98706.16;4467317;32;34265;-75
2022/01/04 08:58:29;;;;;;;;;;;;;;;15.67;43.44;98714.75;4470015;32;33369;-76
2022/01/04 09:00:57;;;;;;;;;;;;;;;15.77;42.96;98699.19;4471642;32;34393;-76
2022/01/04 09:03:25;;;;;;;;;;;;;;;15.71;43.17;98693.66;4467717;32;33131;-75
2022/01/04 09:05:52;;;;;;;;;;;;;;;15.55;43.79;98679.16;4471237;32;33346;-76
2022/01/04 09:08:19;;;;;;;;;;;;;;;14.58;45.78;98690.84;4473180;32;35277;-74
2022/01/04 09:10:47;;;;;;;;;;;;;;;14.74;45.83;98700.78;4470798;32;32675;-73
2022/01/04 09:13:19;;;;;;;;;;;;;;;15.50;43.91;98695.00;4470721;32;34192;-74
2022/01/04 09:18:43;;;;;;;;;;;;;;;15.11;44.61;98692.19;4475446;32;34605;-74
2022/01/04 09:18:43;;;;;;;;;;;;;;;14.37;46.33;98678.62;4474220;32;34423;-74
2022/01/04 09:21:26;;;;;;;;;;;;;;;13.94;48.01;98674.31;4477300;32;32721;-73
2022/01/04 09:23:54;;;;;;;;;;;;;;;14.62;46.13;98659.87;4475119;32;33782;-72
2022/01/04 09:26:22;;;;;;;;;;;;;;;15.50;44.33;98662.66;4478721;32;32647;-72
2022/01/04 09:28:50;;;;;;;;;;;;;;;15.10;44.86;98667.09;4468790;32;34905;-72
2022/01/04 09:31:19;;;;;;;;;;;;;;;15.83;43.50;98662.59;4475735;32;32039;-74
2022/01/04 09:33:47;;;;;;;;;;;;;;;14.90;45.75;98655.84;4478741;32;34208;-74
2022/01/04 09:36:30;;;;;;;;;;;;;;;16.82;41.65;98646.66;4475383;32;35299;-75
2022/01/04 09:38:58;;;;;;;;;;;;;;;15.91;42.97;98638.25;4477544;32;33506;-74
2022/01/04 09:41:25;;;;;;;;;;;;;;;15.52;44.38;98624.75;4474508;32;33361;-74
2022/01/04 09:43:53;;;;;;;;;;;;;;;14.91;45.92;98629.75;4475371;32;34252;-74
2022/01/04 09:46:21;;;;;;;;;;;;;;;14.27;47.15;98629.50;4473720;32;34424;-71
2022/01/04 09:48:48;;;;;;;;;;;;;;;15.73;44.28;98622.34;4472139;32;34053;-72
2022/01/04 09:51:16;;;;;;;;;;;;;;;15.29;45.19;98620.09;4475008;32;34493;-75
2022/01/04 09:53:43;;;;;;;;;;;;;;;15.55;44.94;98608.22;4473069;32;33940;-74
2022/01/04 09:56:10;;;;;;;;;;;;;;;15.47;45.26;98587.50;4475774;32;32967;-74
2022/01/04 09:58:38;;;;;;;;;;;;;;;14.74;47.06;98590.37;4473997;32;34141;-74
2022/01/04 10:01:05;;;;;;;;;;;;;;;14.99;46.32;98577.69;4480345;32;33671;-74
2022/01/04 10:03:35;;;;;;;;;;;;;;;16.19;44.45;98568.44;4473924;32;34364;-74
2022/01/04 10:06:04;;;;;;;;;;;;;;;16.21;43.75;98565.56;4473896;32;34107;-74
2022/01/04 10:08:31;;;;;;;;;;;;;;;16.44;43.62;98566.41;4475581;32;34813;-73
2022/01/04 10:11:03;;;;;;;;;;;;;;;16.20;44.32;98566.59;4476567;32;34386;-74
2022/01/04 10:13:31;;;;;;;;;;;;;;;15.98;44.91;98560.97;4470954;32;35137;-73
2022/01/04 10:15:59;;;;;;;;;;;;;;;16.16;44.54;98549.91;4471713;32;35384;-74
2022/01/04 10:18:29;;;;;;;;;;;;;;;16.16;44.38;98538.28;4474832;32;34397;-73
2022/01/04 10:21:02;;;;;;;;;;;;;;;16.16;44.89;98540.97;4474127;32;33708;-74
2022/01/04 10:23:30;;;;;;;;;;;;;;;15.32;47.10;98538.03;4472932;32;34728;-73
2022/01/04 10:26:01;;;;;;;;;;;;;;;14.94;49.08;98545.03;4476420;32;32465;-71
2022/01/04 10:28:29;;;;;;;;;;;;;;;16.00;45.98;98537.37;4470520;32;35253;-74
2022/01/04 10:31:01;;;;;;;;;;;;;;;15.62;46.84;98536.38;4471103;32;33096;-71
2022/01/04 10:33:31;;;;;;;;;;;;;;;16.88;44.60;98529.75;4477565;32;34271;-73
2022/01/04 10:36:00;;;;;;;;;;;;;;;17.33;43.46;98523.31;4478022;32;34868;-69
2022/01/04 10:38:28;;;;;;;;;;;;;;;16.67;44.59;98520.47;4478922;32;34907;-72
2022/01/04 10:41:01;;;;;;;;;;;;;;;15.80;46.75;98518.09;4472827;32;34568;-71
2022/01/04 10:43:30;;;;;;;;;;;;;;;16.46;45.11;98518.44;4475783;32;34999;-71
2022/01/04 10:45:58;;;;;;;;;;;;;;;17.02;43.98;98520.81;4475487;32;34075;-69
2022/01/04 10:48:26;;;;;;;;;;;;;;;16.53;45.14;98530.22;4476397;32;34565;-72
2022/01/04 10:50:55;;;;;;;;;;;;;;;16.53;45.38;98532.06;4475745;32;32133;-73
2022/01/04 10:53:27;;;;;;;;;;;;;;;16.53;45.39;98530.22;4473407;32;34135;-72
2022/01/04 10:55:55;;;;;;;;;;;;;;;15.75;47.59;98512.38;4474176;32;35179;-73
2022/01/04 10:58:28;;;;;;;;;;;;;;;15.74;47.38;98508.03;4474876;32;34559;-73
2022/01/04 11:00:57;;;;;;;;;;;;;;;14.04;51.70;98510.91;4476841;32;33258;-71
2022/01/04 11:03:26;;;;;;;;;;;;;;;12.77;55.79;98506.38;4467347;32;34191;-72
2022/01/04 11:05:55;;;;;;;;;;;;;;;13.84;53.44;98491.56;4468013;32;33381;-74
2022/01/04 11:08:22;;;;;;;;;;;;;;;14.71;51.25;98486.50;4468888;32;34440;-74
2022/01/04 11:10:51;;;;;;;;;;;;;;;14.45;51.98;98490.22;4475556;32;33643;-72
2022/01/04 11:13:18;;;;;;;;;;;;;;;14.97;50.56;98475.50;4474467;32;33433;-70
2022/01/04 11:15:46;;;;;;;;;;;;;;;14.07;52.95;98475.59;4475707;32;35251;-72
2022/01/04 11:18:13;;;;;;;;;;;;;;;13.82;53.76;98471.22;4475767;32;34566;-74
2022/01/04 11:20:41;;;;;;;;;;;;;;;13.49;54.79;98469.28;4475778;32;33268;-70
2022/01/04 11:23:09;;;;;;;;;;;;;;;13.49;55.09;98452.34;4469974;32;33994;-72
2022/01/04 11:25:37;;;;;;;;;;;;;;;14.06;53.29;98454.22;4473692;32;35068;-71
2022/01/04 11:28:04;;;;;;;;;;;;;;;13.69;54.35;98451.00;4476007;32;35154;-70
2022/01/04 11:30:47;;;;;;;;;;;;;;;13.33;55.41;98453.13;4472252;32;34314;-72
2022/01/04 11:33:17;;;;;;;;;;;;;;;13.30;55.62;98456.16;4468756;32;33981;-70
2022/01/04 11:35:45;;;;;;;;;;;;;;;13.65;54.70;98471.19;4475581;32;33549;-72
2022/01/04 11:38:13;;;;;;;;;;;;;;;14.38;52.67;98462.31;4469209;32;34345;-72
2022/01/04 11:40:41;;;;;;;;;;;;;;;13.74;54.32;98448.69;4465933;32;32938;-71
2022/01/04 11:43:25;;;;;;;;;;;;;;;13.22;56.12;98431.91;4466570;32;33140;-71
2022/01/04 11:45:53;;;;;;;;;;;;;;;13.33;55.89;98417.38;4466738;32;34565;-71
2022/01/04 11:48:25;;;;;;;;;;;;;;;13.21;56.65;98419.47;4472918;32;35636;-71
2022/01/04 11:50:53;;;;;;;;;;;;;;;12.74;57.57;98436.06;4476754;32;33566;-71
2022/01/04 11:53:23;;;;;;;;;;;;;;;12.82;57.84;98436.97;4472244;32;34152;-71
2022/01/04 11:56:00;;;;;;;;;;;;;;;13.01;57.14;98422.44;4466446;32;32478;-71
2022/01/04 11:58:41;;;;;;;;;;;;;;;12.03;60.14;98402.25;4467636;32;34160;-73
2022/01/04 12:01:08;;;;;;;;;;;;;;;13.03;57.57;98400.78;4467023;32;33715;-72
2022/01/04 12:03:37;;;;;;;;;;;;;;;13.72;55.58;98412.22;4472219;32;34046;-70
2022/01/04 12:06:06;;;;;;;;;;;;;;;13.41;55.95;98409.31;4477116;32;34983;-71
2022/01/04 12:08:34;;;;;;;;;;;;;;;12.88;57.68;98410.47;4470050;32;34389;-70
2022/01/04 12:11:19;;;;;;;;;;;;;;;13.15;56.83;98409.38;4472582;32;32144;-72
2022/01/04 12:13:50;;;;;;;;;;;;;;;13.62;56.00;98406.16;4470257;32;34371;-71
2022/01/04 12:16:31;;;;;;;;;;;;;;;12.75;58.40;98390.28;4472840;32;33025;-74
2022/01/04 12:18:59;;;;;;;;;;;;;;;13.30;56.92;98396.19;4471003;32;35544;-74
2022/01/04 12:21:28;;;;;;;;;;;;;;;13.56;56.27;98402.28;4468497;32;33610;-73
2022/01/04 12:23:56;;;;;;;;;;;;;;;13.47;56.03;98408.66;4476525;32;34184;-73
2022/01/04 12:26:28;;;;;;;;;;;;;;;12.59;58.87;98404.47;4467482;32;36100;-73
2022/01/04 12:28:55;;;;;;;;;;;;;;;12.71;58.84;98390.75;4474101;32;34141;-73
2022/01/04 12:31:24;;;;;;;;;;;;;;;12.52;59.24;98387.31;4469594;32;34088;-73
2022/01/04 12:33:52;;;;;;;;;;;;;;;11.95;61.22;98389.66;4468454;32;33028;-73
2022/01/04 12:36:23;;;;;;;;;;;;;;;12.42;60.26;98389.25;4467043;32;34277;-74
2022/01/04 12:38:51;;;;;;;;;;;;;;;12.67;59.36;98386.72;4467780;32;33755;-72
2022/01/04 12:41:19;;;;;;;;;;;;;;;12.53;59.79;98366.69;4470395;32;34493;-73
2022/01/04 12:43:47;;;;;;;;;;;;;;;12.00;60.89;98357.81;4465643;32;33034;-72
2022/01/04 12:46:14;;;;;;;;;;;;;;;11.97;61.45;98349.25;4469024;32;34084;-72
2022/01/04 12:48:46;;;;;;;;;;;;;;;11.95;61.39;98359.31;4470611;32;34254;-72
2022/01/04 12:51:26;;;;;;;;;;;;;;;11.92;61.42;98347.06;4465782;32;33693;-74
2022/01/04 12:53:54;;;;;;;;;;;;;;;12.16;60.27;98346.37;4470100;32;35288;-75
2022/01/04 12:56:21;;;;;;;;;;;;;;;12.27;60.37;98342.59;4475554;32;34322;-75
2022/01/04 12:58:48;;;;;;;;;;;;;;;12.37;59.80;98342.47;4475591;32;34429;-74
2022/01/04 13:01:23;;;;;;;;;;;;;;;12.63;59.05;98332.50;4470421;32;33331;-73